Crookhaven, Ireland
Current Conditions -  °F | °C
As of 3:30 PM on Thursday 30 Oct 2014 (Local Time) from EIKY Reporting Station
Broken Clouds Broken Clouds  
Wind Chill: 63°   Ceiling: 2600
Heat Index: 63°   Visibility: 6mi
Dew Point: 55°   Wind: 12mph
Humidity: 77%   Direction: 180°S
Pressure: 29.74"   Gusts: NA
Location:  51.47°N, 9.73°W
Report Text: EIKY 301430Z 18010KT 9999 SCT018 BKN026 BKN034 17/13 Q1007
Loading
Personal Weather Stations






























Interactive Weather Map New forecast layout! Learn more

10-Day Weather Forecast

Advertisements
Track Severe Weather on mobile